Wright Pat, Ohio
Current Conditions -  °F | °C
As of 7:58 AM on Saturday 20 Dec 2014 (Local Time) from KFFO Reporting Station
Overcast Overcast  
Wind Chill: 29°   Ceiling: 1800
Heat Index: 29°   Visibility: 10mi
Dew Point: 24°   Wind: 3mph
Humidity: 81%   Direction: 40°NE
Pressure: 30.28"   Gusts: NA
Location:  39.8169°N, 84.0506°W
Report Text: KFFO 201258Z 04003KT 10SM OVC018 M01/M04 A3028 RMK AO2A SLP266 T10151043
Loading
Personal Weather Stations






























Interactive Weather Map New forecast layout! Learn more

10-Day Weather Forecast

Advertisements
Track Severe Weather on mobile